createdAt,value
2022-10-16T00:01:39.733Z,1.60
2022-10-16T00:04:07.817Z,1.80
2022-10-16T00:06:35.576Z,1.60
2022-10-16T00:09:03.647Z,1.85
2022-10-16T00:11:34.444Z,1.70
2022-10-16T00:14:05.446Z,1.90
2022-10-16T00:16:34.861Z,1.88
2022-10-16T00:19:02.697Z,2.00
2022-10-16T00:21:32.139Z,1.90
2022-10-16T00:24:02.088Z,1.58
2022-10-16T00:26:31.721Z,1.58
2022-10-16T00:29:00.207Z,1.80
2022-10-16T00:31:30.608Z,1.70
2022-10-16T00:33:58.817Z,1.73
2022-10-16T00:36:28.528Z,1.45
2022-10-16T00:41:29.892Z,1.75
2022-10-16T00:43:59.656Z,2.15
2022-10-16T00:46:31.551Z,2.33
2022-10-16T00:49:04.031Z,2.15
2022-10-16T00:51:34.999Z,1.95
2022-10-16T00:54:04.283Z,2.17
2022-10-16T00:56:32.111Z,2.33
2022-10-16T00:59:01.633Z,2.10
2022-10-16T01:01:30.868Z,2.40
2022-10-16T01:03:58.793Z,2.33
2022-10-16T01:06:37.374Z,1.92
2022-10-16T01:09:15.525Z,2.00
2022-10-16T01:11:50.823Z,2.15
2022-10-16T01:14:24.193Z,2.33
2022-10-16T01:16:57.418Z,1.88
2022-10-16T01:19:36.232Z,1.92
2022-10-16T01:22:05.419Z,2.17
2022-10-16T01:24:40.034Z,2.25
2022-10-16T01:27:12.584Z,2.17
2022-10-16T01:29:47.196Z,2.20
2022-10-16T01:32:21.039Z,2.28
2022-10-16T01:34:54.669Z,2.33
2022-10-16T01:37:31.586Z,2.05
2022-10-16T01:40:02.578Z,1.75
2022-10-16T01:42:37.369Z,2.28
2022-10-16T01:45:08.818Z,1.98
2022-10-16T01:47:38.568Z,2.03
2022-10-16T01:50:08.704Z,2.10
2022-10-16T01:52:39.810Z,2.22
2022-10-16T01:55:10.437Z,2.15
2022-10-16T01:57:46.015Z,2.58
2022-10-16T02:00:16.116Z,2.10
2022-10-16T02:02:48.351Z,2.15
2022-10-16T02:05:20.907Z,2.22
2022-10-16T02:07:49.742Z,2.00
2022-10-16T02:10:18.292Z,2.33
2022-10-16T02:12:53.044Z,2.47
2022-10-16T02:15:21.050Z,1.88
2022-10-16T02:17:49.031Z,2.30
2022-10-16T02:20:17.096Z,2.17
2022-10-16T02:22:48.933Z,2.20
2022-10-16T02:25:23.959Z,2.30
2022-10-16T02:28:00.263Z,2.30
2022-10-16T02:30:31.321Z,3.22
2022-10-16T02:33:02.598Z,2.45
2022-10-16T02:35:31.860Z,2.50
2022-10-16T02:38:00.622Z,2.70
2022-10-16T02:40:29.520Z,3.20
2022-10-16T02:42:58.941Z,2.53
2022-10-16T02:45:26.881Z,3.13
2022-10-16T02:47:54.766Z,2.75
2022-10-16T02:50:23.208Z,2.38
2022-10-16T02:52:50.999Z,2.60
2022-10-16T02:55:18.804Z,2.35
2022-10-16T02:57:47.003Z,2.60
2022-10-16T03:00:18.717Z,2.60
2022-10-16T03:02:47.678Z,2.28
2022-10-16T03:05:16.327Z,2.10
2022-10-16T03:07:44.462Z,2.10
2022-10-16T03:10:12.330Z,1.80
2022-10-16T03:12:40.161Z,1.80
2022-10-16T03:15:09.292Z,2.33
2022-10-16T03:17:38.608Z,2.08
2022-10-16T03:20:07.184Z,2.65
2022-10-16T03:22:35.015Z,3.15
2022-10-16T03:25:02.889Z,2.72
2022-10-16T03:27:30.707Z,2.60
2022-10-16T03:29:58.489Z,2.55
2022-10-16T03:32:26.666Z,2.55
2022-10-16T03:34:57.322Z,2.90
2022-10-16T03:37:25.827Z,2.53
2022-10-16T03:39:54.385Z,2.25
2022-10-16T03:42:22.341Z,2.35
2022-10-16T03:44:50.248Z,2.22
2022-10-16T03:47:22.743Z,1.98
2022-10-16T03:49:50.877Z,1.98
2022-10-16T03:52:20.257Z,1.80
2022-10-16T03:54:48.116Z,2.22
2022-10-16T03:57:15.858Z,2.20
2022-10-16T03:59:43.668Z,1.67
2022-10-16T04:02:11.651Z,1.88
2022-10-16T04:04:39.528Z,1.70
2022-10-16T04:07:07.432Z,1.88
2022-10-16T04:09:36.615Z,1.63
2022-10-16T04:12:04.691Z,2.03
2022-10-16T04:14:32.595Z,1.80
2022-10-16T04:17:00.527Z,1.67
2022-10-16T04:19:29.623Z,1.70
2022-10-16T04:21:57.700Z,1.58
2022-10-16T04:24:25.564Z,1.65
2022-10-16T04:26:54.735Z,1.60
2022-10-16T04:29:22.929Z,1.60
2022-10-16T04:31:50.774Z,1.92
2022-10-16T04:34:18.547Z,1.40
2022-10-16T04:36:48.527Z,1.75
2022-10-16T04:39:16.440Z,1.90
2022-10-16T04:41:44.620Z,1.73
2022-10-16T04:44:13.797Z,1.90
2022-10-16T04:46:41.687Z,1.70
2022-10-16T04:49:09.447Z,2.05
2022-10-16T04:51:37.411Z,2.20
2022-10-16T04:54:05.555Z,2.05
2022-10-16T04:56:33.568Z,1.33
2022-10-16T04:59:01.350Z,1.65
2022-10-16T05:01:30.484Z,1.90
2022-10-16T05:03:58.266Z,1.90
2022-10-16T05:06:26.206Z,1.80
2022-10-16T05:08:54.107Z,1.58
2022-10-16T05:11:21.939Z,1.92
2022-10-16T05:13:51.001Z,1.70
2022-10-16T05:16:21.545Z,1.52
2022-10-16T05:18:53.165Z,2.10
2022-10-16T05:21:24.328Z,1.77
2022-10-16T05:23:52.261Z,1.52
2022-10-16T05:26:20.051Z,1.92
2022-10-16T05:28:48.031Z,1.60
2022-10-16T05:31:15.899Z,1.95
2022-10-16T05:33:44.997Z,1.77
2022-10-16T05:36:14.214Z,1.67
2022-10-16T05:38:42.056Z,1.65
2022-10-16T05:41:10.086Z,1.50
2022-10-16T05:43:38.111Z,1.63
2022-10-16T05:46:07.630Z,1.50
2022-10-16T05:48:35.663Z,1.40
2022-10-16T05:51:05.649Z,1.30
2022-10-16T05:53:36.280Z,1.52
2022-10-16T05:56:05.032Z,1.70
2022-10-16T05:58:35.095Z,2.00
2022-10-16T06:01:05.359Z,1.90
2022-10-16T06:03:33.391Z,1.63
2022-10-16T06:06:01.364Z,1.65
2022-10-16T06:08:29.343Z,1.45
2022-10-16T06:11:05.393Z,1.80
2022-10-16T06:13:33.675Z,2.20
2022-10-16T06:16:03.184Z,1.70
2022-10-16T06:18:31.456Z,1.77
2022-10-16T06:20:59.639Z,1.75
2022-10-16T06:23:30.154Z,1.88
2022-10-16T06:26:08.360Z,1.67
2022-10-16T06:28:36.485Z,1.83
2022-10-16T06:31:08.249Z,1.55
2022-10-16T06:33:37.050Z,1.70
2022-10-16T06:36:06.647Z,1.70
2022-10-16T06:38:35.258Z,2.10
2022-10-16T06:41:03.082Z,1.80
2022-10-16T06:43:33.535Z,1.65
2022-10-16T06:46:02.453Z,1.73
2022-10-16T06:48:30.991Z,1.70
2022-10-16T06:51:00.092Z,1.70
2022-10-16T06:53:29.560Z,1.67
2022-10-16T06:55:57.663Z,1.83
2022-10-16T06:58:26.192Z,1.75
2022-10-16T07:00:58.942Z,1.67
2022-10-16T07:03:26.732Z,1.60
2022-10-16T07:05:54.675Z,2.00
2022-10-16T07:08:22.529Z,1.60
2022-10-16T07:10:50.732Z,1.88
2022-10-16T07:13:19.116Z,1.50
2022-10-16T07:15:46.890Z,1.70
2022-10-16T07:18:16.271Z,1.88
2022-10-16T07:20:44.096Z,2.88
2022-10-16T07:23:11.942Z,3.00
2022-10-16T07:25:39.840Z,1.80
2022-10-16T07:28:07.907Z,2.40
2022-10-16T07:30:37.415Z,1.70
2022-10-16T07:33:05.554Z,1.90
2022-10-16T07:35:34.787Z,1.70
2022-10-16T07:38:02.783Z,1.63
2022-10-16T07:40:30.877Z,1.60
2022-10-16T07:42:58.787Z,1.67
2022-10-16T07:45:26.588Z,1.70
2022-10-16T07:47:54.426Z,1.55
2022-10-16T07:50:22.338Z,1.88
2022-10-16T07:52:51.606Z,2.05
2022-10-16T07:55:21.967Z,1.50
2022-10-16T07:57:49.813Z,1.88
2022-10-16T08:00:17.902Z,2.22
2022-10-16T08:02:45.687Z,2.55
2022-10-16T08:05:13.591Z,1.92
2022-10-16T08:07:41.622Z,1.92
2022-10-16T08:10:17.651Z,2.20
2022-10-16T08:12:45.590Z,1.83
2022-10-16T08:15:13.826Z,2.05
2022-10-16T08:17:41.780Z,2.20
2022-10-16T08:20:11.379Z,1.73
2022-10-16T08:22:39.219Z,1.67
2022-10-16T08:25:07.839Z,1.65
2022-10-16T08:27:37.118Z,1.92
2022-10-16T08:30:05.556Z,2.08
2022-10-16T08:32:33.662Z,1.80
2022-10-16T08:35:01.672Z,2.55
2022-10-16T08:37:32.288Z,2.47
2022-10-16T08:40:00.612Z,1.88
2022-10-16T08:42:50.786Z,1.70
2022-10-16T08:45:28.382Z,1.60
2022-10-16T08:48:11.624Z,1.70
2022-10-16T08:50:41.669Z,2.08
2022-10-16T08:53:18.028Z,1.73
2022-10-16T08:55:50.589Z,1.70
2022-10-16T08:58:21.839Z,1.77
2022-10-16T09:00:52.366Z,1.70
2022-10-16T09:03:33.123Z,1.90
2022-10-16T09:06:15.255Z,1.85
2022-10-16T09:08:56.603Z,2.05
2022-10-16T09:11:36.641Z,1.95
2022-10-16T09:14:20.996Z,1.92
2022-10-16T09:16:54.754Z,1.92
2022-10-16T09:19:31.377Z,2.20
2022-10-16T09:22:04.215Z,1.65
2022-10-16T09:24:32.299Z,1.83
2022-10-16T09:27:00.271Z,1.88
2022-10-16T09:29:29.744Z,2.65
2022-10-16T09:32:09.408Z,2.10
2022-10-16T09:34:41.309Z,1.92
2022-10-16T09:37:19.399Z,1.90
2022-10-16T09:39:48.233Z,1.75
2022-10-16T09:42:18.474Z,1.67
2022-10-16T09:44:51.819Z,2.15
2022-10-16T09:47:24.815Z,2.10
2022-10-16T09:49:54.117Z,1.90
2022-10-16T09:52:24.209Z,1.98
2022-10-16T09:54:54.279Z,1.90
2022-10-16T09:57:22.625Z,2.03
2022-10-16T09:59:53.631Z,1.95
2022-10-16T10:02:30.209Z,1.85
2022-10-16T10:04:58.431Z,2.80
2022-10-16T10:07:28.901Z,1.90
2022-10-16T10:09:59.520Z,1.77
2022-10-16T10:12:29.627Z,2.00
2022-10-16T10:15:05.960Z,2.20
2022-10-16T10:17:33.944Z,2.40
2022-10-16T10:20:03.184Z,2.85
2022-10-16T10:22:41.766Z,2.50
2022-10-16T10:25:21.553Z,2.70
2022-10-16T10:28:08.886Z,2.63
2022-10-16T10:30:46.066Z,1.98
2022-10-16T10:33:29.865Z,2.28
2022-10-16T10:36:09.933Z,2.25
2022-10-16T10:38:46.127Z,2.90
2022-10-16T10:41:31.407Z,2.13
2022-10-16T10:44:09.551Z,2.30
2022-10-16T10:46:46.883Z,2.13
2022-10-16T10:49:28.960Z,2.15
2022-10-16T10:52:04.394Z,2.50
2022-10-16T10:54:41.581Z,2.20
2022-10-16T10:57:16.650Z,2.00
2022-10-16T11:00:03.948Z,2.10
2022-10-16T11:02:39.598Z,2.03
2022-10-16T11:05:28.113Z,2.50
2022-10-16T11:08:00.617Z,2.38
2022-10-16T11:10:32.749Z,2.60
2022-10-16T11:13:10.196Z,3.05
2022-10-16T11:15:43.447Z,2.60
2022-10-16T11:18:20.555Z,1.95
2022-10-16T11:20:54.012Z,2.30
2022-10-16T11:23:28.186Z,1.77
2022-10-16T11:26:01.302Z,2.45
2022-10-16T11:28:33.976Z,2.00
2022-10-16T11:31:05.773Z,1.90
2022-10-16T11:33:41.838Z,2.25
2022-10-16T11:36:16.491Z,2.42
2022-10-16T11:38:51.327Z,1.63
2022-10-16T11:41:28.424Z,2.33
2022-10-16T11:44:16.643Z,1.70
2022-10-16T11:46:59.241Z,2.03
2022-10-16T11:49:34.290Z,3.70
2022-10-16T11:52:10.086Z,2.25
2022-10-16T11:54:43.560Z,1.90
2022-10-16T11:57:16.188Z,1.85
2022-10-16T11:59:50.961Z,2.45
2022-10-16T12:02:40.805Z,1.90
2022-10-16T12:05:20.834Z,2.20
2022-10-16T12:07:54.626Z,2.17
2022-10-16T12:10:26.645Z,2.28
2022-10-16T12:12:57.846Z,1.45
2022-10-16T12:15:57.636Z,2.40
2022-10-16T12:18:26.910Z,2.40
2022-10-16T12:21:05.672Z,1.80
2022-10-16T12:23:34.551Z,2.00
2022-10-16T12:26:03.796Z,1.92
2022-10-16T12:28:33.861Z,1.95
2022-10-16T12:31:04.212Z,2.17
2022-10-16T12:33:34.891Z,1.80
2022-10-16T12:36:08.298Z,2.38
2022-10-16T12:38:47.404Z,2.17
2022-10-16T12:41:27.020Z,1.60
2022-10-16T12:43:54.956Z,2.00
2022-10-16T12:46:39.141Z,2.60
2022-10-16T12:49:25.368Z,1.92
2022-10-16T12:51:54.693Z,1.98
2022-10-16T12:54:27.221Z,1.58
2022-10-16T12:57:08.709Z,2.28
2022-10-16T12:59:44.273Z,2.28
2022-10-16T13:02:42.398Z,2.10
2022-10-16T13:05:34.522Z,2.35
2022-10-16T13:08:19.947Z,2.30
2022-10-16T13:10:59.919Z,2.03
2022-10-16T13:13:43.780Z,2.13
2022-10-16T13:16:22.783Z,2.28
2022-10-16T13:19:03.780Z,2.65
2022-10-16T13:21:42.618Z,1.73
2022-10-16T13:24:28.012Z,2.22
2022-10-16T13:27:03.572Z,1.70
2022-10-16T13:29:33.426Z,1.90
2022-10-16T13:32:02.591Z,1.83
2022-10-16T13:34:30.946Z,2.03
2022-10-16T13:36:58.952Z,2.42
2022-10-16T13:39:30.044Z,1.90
2022-10-16T13:42:08.821Z,2.13
2022-10-16T13:44:41.572Z,2.38
2022-10-16T13:47:24.155Z,1.98
2022-10-16T13:50:02.435Z,1.98
2022-10-16T13:52:30.400Z,2.08
2022-10-16T13:55:01.977Z,1.42
2022-10-16T13:57:30.972Z,2.03
2022-10-16T13:59:59.047Z,1.73
2022-10-16T14:02:29.900Z,2.10
2022-10-16T14:04:59.619Z,1.83
2022-10-16T14:07:30.027Z,1.88
2022-10-16T14:10:03.020Z,2.13
2022-10-16T14:12:31.267Z,2.38
2022-10-16T14:15:01.153Z,1.38
2022-10-16T14:17:31.890Z,2.25
2022-10-16T14:20:04.074Z,2.45
2022-10-16T14:22:35.163Z,2.05
2022-10-16T14:25:18.733Z,2.30
2022-10-16T14:27:47.017Z,2.10
2022-10-16T14:30:18.184Z,2.08
2022-10-16T14:32:56.474Z,1.98
2022-10-16T14:35:30.363Z,1.73
2022-10-16T14:37:59.942Z,2.17
2022-10-16T14:40:31.343Z,2.25
2022-10-16T14:43:00.696Z,2.33
2022-10-16T14:45:32.995Z,2.88
2022-10-16T14:48:03.905Z,2.47
2022-10-16T14:50:31.856Z,3.05
2022-10-16T14:53:00.832Z,2.13
2022-10-16T14:55:30.175Z,2.25
2022-10-16T14:58:00.631Z,1.88
2022-10-16T15:00:29.083Z,2.45
2022-10-16T15:02:56.927Z,1.58
2022-10-16T15:05:27.374Z,2.63
2022-10-16T15:07:56.498Z,2.15
2022-10-16T15:10:26.408Z,1.75
2022-10-16T15:12:56.215Z,1.45
2022-10-16T15:15:30.515Z,2.55
2022-10-16T15:18:01.453Z,2.00
2022-10-16T15:20:31.168Z,2.13
2022-10-16T15:22:59.454Z,2.27
2022-10-16T15:25:34.175Z,2.13
2022-10-16T15:28:05.347Z,2.33
2022-10-16T15:30:33.636Z,2.80
2022-10-16T15:33:01.512Z,2.92
2022-10-16T15:35:29.848Z,3.60
2022-10-16T15:37:57.778Z,4.00
2022-10-16T15:40:25.781Z,3.15
2022-10-16T15:42:53.610Z,3.20
2022-10-16T15:45:22.985Z,2.55
2022-10-16T15:47:50.807Z,2.63
2022-10-16T15:50:20.383Z,2.50
2022-10-16T15:52:48.282Z,2.53
2022-10-16T15:55:16.656Z,2.58
2022-10-16T15:57:52.199Z,2.75
2022-10-16T16:00:23.056Z,2.95
2022-10-16T16:02:53.710Z,2.30
2022-10-16T16:05:22.933Z,3.03
2022-10-16T16:07:51.627Z,2.55
2022-10-16T16:10:21.514Z,2.85
2022-10-16T16:12:53.637Z,3.00
2022-10-16T16:15:23.976Z,4.90
2022-10-16T16:17:51.823Z,9.75
2022-10-16T16:20:19.706Z,9.07
2022-10-16T16:22:47.677Z,7.47
2022-10-16T16:25:15.853Z,6.75
2022-10-16T16:27:43.737Z,6.15
2022-10-16T16:30:18.247Z,5.40
2022-10-16T16:32:49.124Z,5.55
2022-10-16T16:35:17.095Z,6.15
2022-10-16T16:37:45.273Z,6.50
2022-10-16T16:40:13.275Z,6.80
2022-10-16T16:42:41.242Z,4.88
2022-10-16T16:45:10.415Z,6.15
2022-10-16T16:47:39.349Z,6.05
2022-10-16T16:50:09.209Z,5.85
2022-10-16T16:52:37.224Z,5.75
2022-10-16T16:55:05.518Z,5.78
2022-10-16T16:57:33.339Z,5.50
2022-10-16T17:00:01.168Z,5.35
2022-10-16T17:02:28.998Z,4.65
2022-10-16T17:04:57.746Z,5.07
2022-10-16T17:07:28.433Z,4.97
2022-10-16T17:09:56.744Z,4.70
2022-10-16T17:12:24.654Z,4.88
2022-10-16T17:14:52.851Z,5.25
2022-10-16T17:17:20.654Z,5.28
2022-10-16T17:19:51.004Z,5.82
2022-10-16T17:22:19.063Z,6.07
2022-10-16T17:24:50.615Z,5.50
2022-10-16T17:27:18.815Z,5.25
2022-10-16T17:29:46.776Z,5.57
2022-10-16T17:32:14.706Z,5.72
2022-10-16T17:34:42.527Z,4.97
2022-10-16T17:37:14.273Z,5.00
2022-10-16T17:39:45.247Z,4.72
2022-10-16T17:42:14.432Z,5.03
2022-10-16T17:44:42.244Z,5.38
2022-10-16T17:47:10.148Z,5.40
2022-10-16T17:49:38.165Z,6.28
2022-10-16T17:52:06.185Z,6.68
2022-10-16T17:54:34.244Z,6.07
2022-10-16T17:57:02.112Z,6.00
2022-10-16T17:59:31.398Z,6.35
2022-10-16T18:01:59.540Z,6.40
2022-10-16T18:04:27.636Z,6.80
2022-10-16T18:06:56.547Z,5.80
2022-10-16T18:09:24.592Z,5.60
2022-10-16T18:11:59.718Z,6.47
2022-10-16T18:14:28.739Z,6.85
2022-10-16T18:16:58.580Z,7.63
2022-10-16T18:19:27.862Z,7.95
2022-10-16T18:21:56.409Z,6.57
2022-10-16T18:24:25.631Z,6.43
2022-10-16T18:26:56.640Z,7.47
2022-10-16T18:29:25.744Z,6.55
2022-10-16T18:31:54.285Z,6.00
2022-10-16T18:34:23.997Z,5.93
2022-10-16T18:36:54.311Z,6.05
2022-10-16T18:39:24.660Z,6.15
2022-10-16T18:41:59.437Z,4.93
2022-10-16T18:44:27.700Z,4.15
2022-10-16T18:46:57.145Z,4.07
2022-10-16T18:49:27.230Z,3.83
2022-10-16T18:51:56.744Z,3.95
2022-10-16T18:54:25.540Z,3.33
2022-10-16T18:56:53.751Z,4.25
2022-10-16T18:59:22.061Z,3.83
2022-10-16T19:01:52.250Z,3.95
2022-10-16T19:04:22.347Z,5.50
2022-10-16T19:06:53.932Z,5.70
2022-10-16T19:09:23.975Z,5.72
2022-10-16T19:14:25.163Z,6.38
2022-10-16T19:16:53.101Z,7.95
2022-10-16T19:19:21.055Z,9.77
2022-10-16T19:21:55.879Z,9.52
2022-10-16T19:24:25.506Z,9.18
2022-10-16T19:26:53.507Z,9.07
2022-10-16T19:29:21.400Z,7.90
2022-10-16T19:31:49.472Z,8.48
2022-10-16T19:34:17.497Z,7.43
2022-10-16T19:36:45.524Z,7.85
2022-10-16T19:39:17.247Z,7.72
2022-10-16T19:41:47.385Z,8.52
2022-10-16T19:44:16.995Z,7.18
2022-10-16T19:46:45.482Z,7.90
2022-10-16T19:49:16.884Z,6.80
2022-10-16T19:51:47.815Z,6.75
2022-10-16T19:54:16.397Z,6.95
2022-10-16T19:56:45.130Z,6.60
2022-10-16T19:59:17.223Z,5.72
2022-10-16T20:01:45.208Z,5.95
2022-10-16T20:04:14.312Z,7.18
2022-10-16T20:06:42.599Z,9.45
2022-10-16T20:09:11.003Z,6.80
2022-10-16T20:11:39.164Z,6.72
2022-10-16T20:14:07.782Z,5.72
2022-10-16T20:16:37.048Z,6.03
2022-10-16T20:19:05.390Z,6.15
2022-10-16T20:21:36.553Z,5.38
2022-10-16T20:24:06.294Z,5.75
2022-10-16T20:26:37.608Z,5.38
2022-10-16T20:29:06.629Z,5.38
2022-10-16T20:31:36.647Z,5.20
2022-10-16T20:34:06.324Z,5.93
2022-10-16T20:36:35.204Z,5.50
2022-10-16T20:39:03.871Z,5.53
2022-10-16T20:41:31.842Z,5.18
2022-10-16T20:43:59.663Z,5.63
2022-10-16T20:46:29.253Z,5.50
2022-10-16T20:49:10.403Z,5.20
2022-10-16T20:51:39.521Z,4.53
2022-10-16T20:54:08.232Z,5.38
2022-10-16T20:56:37.520Z,5.07
2022-10-16T20:59:06.287Z,5.35
2022-10-16T21:01:35.601Z,5.43
2022-10-16T21:04:07.505Z,5.45
2022-10-16T21:06:37.679Z,5.95
2022-10-16T21:09:06.873Z,4.95
2022-10-16T21:11:36.594Z,5.57
2022-10-16T21:14:07.276Z,5.47
2022-10-16T21:16:35.668Z,4.60
2022-10-16T21:19:05.144Z,5.95
2022-10-16T21:21:34.664Z,5.63
2022-10-16T21:24:03.260Z,6.20
2022-10-16T21:26:31.646Z,5.43
2022-10-16T21:29:01.376Z,5.07
2022-10-16T21:31:30.180Z,5.30
2022-10-16T21:33:58.920Z,4.55
2022-10-16T21:36:29.890Z,5.10
2022-10-16T21:39:01.728Z,4.50
2022-10-16T21:41:30.995Z,5.25
2022-10-16T21:44:00.028Z,4.75
2022-10-16T21:46:29.550Z,5.15
2022-10-16T21:48:57.886Z,4.78
2022-10-16T21:51:29.911Z,5.07
2022-10-16T21:53:57.933Z,5.05
2022-10-16T21:56:25.813Z,4.97
2022-10-16T21:58:53.912Z,4.50
2022-10-16T22:01:23.763Z,4.38
2022-10-16T22:03:52.086Z,4.18
2022-10-16T22:08:57.642Z,4.40
2022-10-16T22:11:27.815Z,4.82
2022-10-16T22:13:57.590Z,4.25
2022-10-16T22:16:27.241Z,4.72
2022-10-16T22:18:55.787Z,4.50
2022-10-16T22:21:24.412Z,4.72
2022-10-16T22:23:52.244Z,4.68
2022-10-16T22:26:21.450Z,4.82
2022-10-16T22:28:49.426Z,4.85
2022-10-16T22:31:17.910Z,4.97
2022-10-16T22:33:45.951Z,5.13
2022-10-16T22:36:19.111Z,4.95
2022-10-16T22:38:46.955Z,4.80
2022-10-16T22:41:15.499Z,4.75
2022-10-16T22:43:47.937Z,4.38
2022-10-16T22:46:18.548Z,4.65
2022-10-16T22:48:46.715Z,5.10
2022-10-16T22:51:17.023Z,4.85
2022-10-16T22:53:46.186Z,4.45
2022-10-16T22:56:14.875Z,4.97
2022-10-16T22:58:44.545Z,4.82
2022-10-16T23:01:15.191Z,4.53
2022-10-16T23:03:43.206Z,4.75
2022-10-16T23:06:11.184Z,4.70
2022-10-16T23:08:39.023Z,5.38
2022-10-16T23:11:09.011Z,4.90
2022-10-16T23:13:43.384Z,4.70
2022-10-16T23:16:14.168Z,5.18
2022-10-16T23:18:43.243Z,4.13
2022-10-16T23:21:13.994Z,4.88
2022-10-16T23:23:42.824Z,4.68
2022-10-16T23:26:11.956Z,4.45
2022-10-16T23:28:39.938Z,5.18
2022-10-16T23:31:08.587Z,4.88
2022-10-16T23:33:38.740Z,4.47
2022-10-16T23:36:08.583Z,4.78
2022-10-16T23:38:36.811Z,5.13
2022-10-16T23:41:05.125Z,4.55
2022-10-16T23:43:33.097Z,4.40
2022-10-16T23:46:00.987Z,4.55
2022-10-16T23:48:29.295Z,4.95
2022-10-16T23:50:58.660Z,5.13
2022-10-16T23:53:27.107Z,4.70
2022-10-16T23:55:55.016Z,4.72
2022-10-16T23:58:23.027Z,5.20
